West Mecca, Ohio
Current Conditions -  °F | °C
As of 1:51 PM on Friday 31 Oct 2014 (Local Time) from KYNG Reporting Station
Light Rain Light Rain  
Wind Chill: 43°   Ceiling: 3100
Heat Index: 46°   Visibility: 10mi
Dew Point: 38°   Wind: 6mph
Humidity: 73%   Direction: 170°S
Pressure: 29.87"   Gusts: NA
Location:  41.3436°N, 80.7192°W
Report Text: KYNG 311751Z 17005KT 10SM -RA FEW021 BKN031 OVC050 08/03 A2987 RMK AO2 RAE1656B20 SLP119 P0000 60001 T00780033 10083 20061 58017 $
Loading
Personal Weather Stations






























Interactive Weather Map
Tropical Storm Tracking
New forecast layout! Learn more

10-Day Weather Forecast

Advertisements
Track Severe Weather on mobile